Terminal Aerodrome Forecast
Issued by NWS

Home | Current Version | Previous Version | Text Only | Print | Product List | Glossary On
Versions: 1 2 3 4 5 6 7 8 9 10 11 12 13 14 15 16 17
000
FTUS43 KIND 040520
TAFLAF
TAF
KLAF 040520Z 0406/0506 00000KT 6SM BR FEW060
      TEMPO 0409/0412 5SM BR
     FM041500 23005KT P6SM FEW030
     FM041800 23008KT P6SM SCT040
     FM050000 00000KT P6SM BKN250
      AMD LTD TO CLD VIS AND WIND TIL 041300=

USA.gov is the U.S. government's official web portal to all federal, state and local government web resources and services.